createdAt,value
2022-12-26T00:00:57.229Z,101322.16
2022-12-26T00:03:24.914Z,101323.88
2022-12-26T00:05:54.007Z,101320.22
2022-12-26T00:08:21.415Z,101324.06
2022-12-26T00:10:48.973Z,101322.06
2022-12-26T00:13:38.614Z,101328.31
2022-12-26T00:16:10.865Z,101334.38
2022-12-26T00:18:38.861Z,101339.78
2022-12-26T00:21:06.950Z,101343.19
2022-12-26T00:23:34.738Z,101344.88
2022-12-26T00:26:06.017Z,101345.47
2022-12-26T00:28:33.490Z,101348.97
2022-12-26T00:31:04.555Z,101338.56
2022-12-26T00:33:33.923Z,101341.00
2022-12-26T00:36:02.723Z,101356.66
2022-12-26T00:38:30.423Z,101353.34
2022-12-26T00:40:57.888Z,101346.22
2022-12-26T00:43:25.490Z,101348.19
2022-12-26T00:45:54.048Z,101350.94
2022-12-26T00:48:21.986Z,101359.34
2022-12-26T00:50:49.711Z,101353.84
2022-12-26T00:53:17.048Z,101360.50
2022-12-26T00:55:44.451Z,101360.03
2022-12-26T00:58:11.893Z,101365.44
2022-12-26T01:00:39.263Z,101369.78
2022-12-26T01:03:07.309Z,101374.22
2022-12-26T01:05:35.172Z,101361.53
2022-12-26T01:08:19.722Z,101369.13
2022-12-26T01:10:51.388Z,101362.50
2022-12-26T01:13:19.177Z,101364.34
2022-12-26T01:15:50.502Z,101361.50
2022-12-26T01:18:18.583Z,101356.34
2022-12-26T01:20:46.090Z,101365.91
2022-12-26T01:23:13.377Z,101359.75
2022-12-26T01:26:16.910Z,101360.22
2022-12-26T01:28:29.905Z,101358.16
2022-12-26T01:31:01.393Z,101364.78
2022-12-26T01:33:29.019Z,101368.25
2022-12-26T01:35:56.340Z,101364.16
2022-12-26T01:38:25.240Z,101358.81
2022-12-26T01:41:13.171Z,101357.97
2022-12-26T01:43:50.504Z,101357.41
2022-12-26T01:46:19.215Z,101362.50
2022-12-26T01:48:47.048Z,101360.41
2022-12-26T01:51:14.524Z,101362.44
2022-12-26T01:53:47.323Z,101371.81
2022-12-26T01:56:16.320Z,101367.31
2022-12-26T01:58:45.235Z,101360.59
2022-12-26T02:01:12.724Z,101367.03
2022-12-26T02:03:58.900Z,101373.69
2022-12-26T02:06:26.508Z,101372.06
2022-12-26T02:08:53.830Z,101363.72
2022-12-26T02:11:25.192Z,101367.72
2022-12-26T02:13:53.591Z,101369.13
2022-12-26T02:16:21.263Z,101362.50
2022-12-26T02:18:48.802Z,101364.09
2022-12-26T02:21:19.363Z,101365.44
2022-12-26T02:24:05.612Z,101363.44
2022-12-26T02:26:36.073Z,101361.91
2022-12-26T02:29:03.819Z,101367.81
2022-12-26T02:31:39.453Z,101355.72
2022-12-26T02:34:25.640Z,101363.63
2022-12-26T02:36:56.178Z,101364.03
2022-12-26T02:39:44.443Z,101369.91
2022-12-26T02:42:19.756Z,101370.53
2022-12-26T02:45:12.515Z,101368.94
2022-12-26T02:47:52.271Z,101373.56
2022-12-26T02:50:38.312Z,101375.56
2022-12-26T02:53:29.205Z,101369.88
2022-12-26T02:56:16.356Z,101381.81
2022-12-26T02:59:55.672Z,101379.66
2022-12-26T03:02:34.868Z,101373.09
2022-12-26T03:05:21.109Z,101376.13
2022-12-26T03:08:07.218Z,101378.28
2022-12-26T03:10:53.805Z,101393.06
2022-12-26T03:13:23.810Z,101380.31
2022-12-26T03:16:14.690Z,101392.22
2022-12-26T03:18:57.848Z,101388.53
2022-12-26T03:21:27.892Z,101393.16
2022-12-26T03:23:55.886Z,101396.84
2022-12-26T03:26:40.277Z,101394.38
2022-12-26T03:29:27.048Z,101392.97
2022-12-26T03:31:54.641Z,101394.50
2022-12-26T03:34:21.938Z,101394.78
2022-12-26T03:37:04.757Z,101402.81
2022-12-26T03:39:56.634Z,101399.88
2022-12-26T03:42:52.382Z,101408.31
2022-12-26T03:45:54.477Z,101401.00
2022-12-26T03:49:06.776Z,101408.88
2022-12-26T03:52:22.216Z,101411.50
2022-12-26T03:55:27.006Z,101423.16
2022-12-26T03:58:13.980Z,101414.66
2022-12-26T04:01:00.226Z,101410.13
2022-12-26T04:03:46.465Z,101412.44
2022-12-26T04:06:33.962Z,101410.84
2022-12-26T04:09:38.972Z,101412.28
2022-12-26T04:12:25.087Z,101417.59
2022-12-26T04:15:12.770Z,101424.41
2022-12-26T04:18:13.053Z,101427.44
2022-12-26T04:20:46.649Z,101415.22
2022-12-26T04:23:35.316Z,101417.47
2022-12-26T04:26:23.518Z,101423.44
2022-12-26T04:29:09.723Z,101417.28
2022-12-26T04:32:06.475Z,101422.59
2022-12-26T04:34:58.714Z,101419.84
2022-12-26T04:37:45.278Z,101427.97
2022-12-26T04:40:34.024Z,101436.34
2022-12-26T04:43:49.191Z,101432.09
2022-12-26T04:46:07.824Z,101443.13
2022-12-26T04:48:53.885Z,101438.41
2022-12-26T04:51:22.804Z,101437.66
2022-12-26T04:53:50.312Z,101435.25
2022-12-26T04:56:18.888Z,101438.84
2022-12-26T04:58:46.286Z,101439.56
2022-12-26T05:01:32.416Z,101446.63
2022-12-26T05:04:18.860Z,101443.44
2022-12-26T05:07:05.265Z,101446.16
2022-12-26T05:09:36.897Z,101447.38
2022-12-26T05:12:05.345Z,101448.81
2022-12-26T05:14:32.738Z,101440.00
2022-12-26T05:17:19.030Z,101447.41
2022-12-26T05:20:05.242Z,101449.56
2022-12-26T05:22:52.198Z,101452.59
2022-12-26T05:25:39.432Z,101457.13
2022-12-26T05:28:27.729Z,101463.47
2022-12-26T05:30:55.394Z,101470.59
2022-12-26T05:33:42.300Z,101465.78
2022-12-26T05:36:10.112Z,101465.88
2022-12-26T05:38:37.954Z,101472.13
2022-12-26T05:41:05.617Z,101475.53
2022-12-26T05:43:33.085Z,101468.44
2022-12-26T05:46:00.412Z,101483.66
2022-12-26T05:48:27.931Z,101482.34
2022-12-26T05:51:00.530Z,101491.03
2022-12-26T05:53:30.168Z,101492.94
2022-12-26T05:56:07.486Z,101499.00
2022-12-26T05:58:34.976Z,101502.69
2022-12-26T06:01:12.468Z,101509.59
2022-12-26T06:03:40.132Z,101505.44
2022-12-26T06:06:07.590Z,101510.56
2022-12-26T06:08:36.451Z,101526.28
2022-12-26T06:11:05.213Z,101518.59
2022-12-26T06:13:32.693Z,101517.28
2022-12-26T06:16:04.016Z,101519.72
2022-12-26T06:18:33.133Z,101522.00
2022-12-26T06:21:03.527Z,101517.94
2022-12-26T06:23:33.953Z,101521.25
2022-12-26T06:26:02.025Z,101517.38
2022-12-26T06:28:29.683Z,101525.63
2022-12-26T06:31:04.626Z,101522.41
2022-12-26T06:33:33.217Z,101530.16
2022-12-26T06:36:07.491Z,101521.72
2022-12-26T06:38:35.359Z,101529.88
2022-12-26T06:41:04.967Z,101521.06
2022-12-26T06:43:34.042Z,101533.19
2022-12-26T06:46:03.706Z,101536.69
2022-12-26T06:48:33.011Z,101537.75
2022-12-26T06:51:07.619Z,101532.91
2022-12-26T06:53:40.927Z,101536.22
2022-12-26T06:56:08.867Z,101536.50
2022-12-26T06:58:36.377Z,101534.59
2022-12-26T07:01:07.717Z,101537.53
2022-12-26T07:03:37.096Z,101540.00
2022-12-26T07:06:10.390Z,101538.31
2022-12-26T07:08:38.371Z,101537.28
2022-12-26T10:56:18.242Z,101561.84
2022-12-26T10:58:46.034Z,101566.19
2022-12-26T11:01:28.909Z,101567.16
2022-12-26T11:03:59.740Z,101563.31
2022-12-26T11:06:28.348Z,101568.69
2022-12-26T11:08:56.233Z,101575.84
2022-12-26T11:11:24.860Z,101570.81
2022-12-26T11:14:01.285Z,101581.53
2022-12-26T11:16:30.794Z,101580.16
2022-12-26T11:18:58.531Z,101574.59
2022-12-26T11:21:29.079Z,101580.28
2022-12-26T11:24:17.108Z,101586.59
2022-12-26T11:26:44.716Z,101587.16
2022-12-26T11:29:16.315Z,101584.03
2022-12-26T11:31:49.857Z,101586.31
2022-12-26T11:34:18.030Z,101582.41
2022-12-26T11:36:46.396Z,101586.66
2022-12-26T11:39:22.788Z,101588.13
2022-12-26T11:41:50.298Z,101583.75
2022-12-26T11:44:28.844Z,101583.22
2022-12-26T11:47:00.679Z,101586.34
2022-12-26T11:49:33.645Z,101594.59
2022-12-26T11:52:02.219Z,101587.59
2022-12-26T11:54:31.333Z,101585.78
2022-12-26T11:57:03.700Z,101594.22
2022-12-26T11:59:31.502Z,101595.28
2022-12-26T12:02:19.105Z,101585.50
2022-12-26T12:04:47.439Z,101588.00
2022-12-26T12:07:23.993Z,101591.50
2022-12-26T12:09:57.815Z,101595.13
2022-12-26T12:12:25.192Z,101590.72
2022-12-26T12:15:11.408Z,101588.03
2022-12-26T12:17:44.455Z,101588.63
2022-12-26T12:20:30.432Z,101589.41
2022-12-26T12:23:04.743Z,101595.75
2022-12-26T12:25:38.217Z,101595.16
2022-12-26T12:28:21.381Z,101602.22
2022-12-26T12:30:55.276Z,101604.13
2022-12-26T12:33:25.778Z,101594.19
2022-12-26T12:36:11.903Z,101600.34
2022-12-26T12:38:56.352Z,101595.38
2022-12-26T12:41:24.399Z,101598.13
2022-12-26T12:44:02.368Z,101601.06
2022-12-26T12:46:46.857Z,101595.81
2022-12-26T12:49:33.235Z,101612.00
2022-12-26T12:52:11.165Z,101612.44
2022-12-26T12:54:53.357Z,101616.63
2022-12-26T12:57:29.590Z,101611.44
2022-12-26T13:00:00.195Z,101611.72
2022-12-26T13:02:32.771Z,101615.66
2022-12-26T13:05:39.321Z,101614.66
2022-12-26T13:08:30.028Z,101613.78
2022-12-26T13:11:05.969Z,101619.06
2022-12-26T13:13:51.656Z,101614.00
2022-12-26T13:16:25.422Z,101616.41
2022-12-26T13:18:54.200Z,101610.84
2022-12-26T13:21:21.763Z,101614.97
2022-12-26T13:24:12.062Z,101613.75
2022-12-26T13:26:43.404Z,101622.66
2022-12-26T13:29:11.496Z,101621.03
2022-12-26T13:31:39.215Z,101630.88
2022-12-26T13:34:11.186Z,101623.47
2022-12-26T13:36:43.474Z,101622.13
2022-12-26T13:39:14.461Z,101624.59
2022-12-26T13:42:16.365Z,101622.38
2022-12-26T13:44:46.691Z,101627.84
2022-12-26T13:47:31.339Z,101623.19
2022-12-26T13:49:59.075Z,101631.88
2022-12-26T13:52:33.024Z,101625.44
2022-12-26T13:55:07.099Z,101633.28
2022-12-26T13:57:34.735Z,101635.06
2022-12-26T14:00:18.521Z,101629.03
2022-12-26T14:03:16.847Z,101635.19
2022-12-26T14:05:45.415Z,101631.34
2022-12-26T14:08:33.686Z,101630.94
2022-12-26T14:11:20.502Z,101633.50
2022-12-26T14:13:52.000Z,101632.13
2022-12-26T14:16:25.658Z,101634.34
2022-12-26T14:19:18.693Z,101645.16
2022-12-26T14:22:08.534Z,101642.78
2022-12-26T14:24:38.327Z,101637.31
2022-12-26T14:27:22.753Z,101638.91
2022-12-26T14:29:56.196Z,101638.31
2022-12-26T14:32:29.995Z,101626.38
2022-12-26T14:35:16.335Z,101628.63
2022-12-26T14:37:46.923Z,101624.88
2022-12-26T14:40:14.702Z,101626.63
2022-12-26T14:43:12.734Z,101625.03
2022-12-26T14:45:42.095Z,101618.38
2022-12-26T14:48:16.074Z,101620.19
2022-12-26T14:50:53.172Z,101611.16
2022-12-26T14:53:20.806Z,101610.84
2022-12-26T14:55:58.395Z,101614.56
2022-12-26T14:58:29.180Z,101615.09
2022-12-26T15:01:20.974Z,101619.09
2022-12-26T15:03:49.182Z,101615.00
2022-12-26T15:06:19.967Z,101609.25
2022-12-26T15:09:06.685Z,101614.53
2022-12-26T15:11:43.880Z,101615.84
2022-12-26T15:14:33.633Z,101621.25
2022-12-26T15:17:20.365Z,101621.56
2022-12-26T15:20:06.930Z,101611.84
2022-12-26T15:22:34.521Z,101617.50
2022-12-26T15:25:19.707Z,101619.81
2022-12-26T15:27:57.145Z,101615.25
2022-12-26T15:30:36.592Z,101612.19
2022-12-26T15:33:06.598Z,101612.41
2022-12-26T15:35:41.643Z,101614.03
2022-12-26T15:38:26.875Z,101625.38
2022-12-26T15:41:11.511Z,101622.47
2022-12-26T15:43:49.697Z,101622.53
2022-12-26T15:46:21.591Z,101632.94
2022-12-26T15:48:49.221Z,101626.13
2022-12-26T15:51:16.742Z,101621.56
2022-12-26T15:53:57.534Z,101625.16
2022-12-26T15:56:45.758Z,101628.28
2022-12-26T15:59:32.187Z,101638.13
2022-12-26T16:02:00.584Z,101635.63
2022-12-26T16:04:39.575Z,101627.19
2022-12-26T16:07:27.061Z,101634.34
2022-12-26T16:09:55.714Z,101644.38
2022-12-26T16:12:26.219Z,101641.13
2022-12-26T16:15:14.274Z,101644.69
2022-12-26T16:17:42.154Z,101650.19
2022-12-26T16:20:43.780Z,101647.06
2022-12-26T16:23:12.702Z,101650.69
2022-12-26T16:25:40.911Z,101649.66
2022-12-26T20:55:38.785Z,101577.53
2022-12-26T20:58:07.236Z,101572.41
2022-12-26T21:00:38.143Z,101582.84
2022-12-26T21:03:07.131Z,101585.44
2022-12-26T21:05:35.032Z,101580.63
2022-12-26T21:08:02.831Z,101580.63
2022-12-26T21:10:31.923Z,101568.00
2022-12-26T21:12:59.282Z,101563.19
2022-12-26T21:15:27.286Z,101559.22
2022-12-26T21:17:55.078Z,101558.59
2022-12-26T21:20:23.265Z,101565.16
2022-12-26T21:22:53.580Z,101563.06
2022-12-26T21:25:21.343Z,101549.59
2022-12-26T21:27:49.827Z,101545.25
2022-12-26T21:30:18.975Z,101548.13
2022-12-26T21:32:46.382Z,101538.56
2022-12-26T21:35:14.939Z,101531.44
2022-12-26T21:37:48.648Z,101532.59
2022-12-26T21:40:16.223Z,101525.25
2022-12-26T21:42:43.574Z,101522.06
2022-12-26T21:45:11.557Z,101512.81
2022-12-26T21:47:39.717Z,101508.38
2022-12-26T21:50:09.989Z,101507.31
2022-12-26T21:52:38.630Z,101514.72
2022-12-26T21:55:25.199Z,101522.19
2022-12-26T21:57:53.288Z,101528.03
2022-12-26T22:00:20.827Z,101529.78
2022-12-26T22:03:07.101Z,101511.97
2022-12-26T22:05:35.818Z,101507.66
2022-12-26T22:08:03.980Z,101516.34
2022-12-26T22:10:50.815Z,101505.38
2022-12-26T22:13:18.405Z,101508.16
2022-12-26T22:16:04.692Z,101505.06
2022-12-26T22:18:39.995Z,101494.59
2022-12-26T22:21:09.274Z,101487.88
2022-12-26T22:23:37.510Z,101489.25
2022-12-26T22:26:05.320Z,101488.66
2022-12-26T22:28:35.320Z,101494.97
2022-12-26T22:31:02.974Z,101505.75
2022-12-26T22:33:30.463Z,101501.94
2022-12-26T22:36:05.196Z,101496.66
2022-12-26T22:38:33.267Z,101500.75
2022-12-26T22:41:00.696Z,101495.41
2022-12-26T22:43:28.073Z,101497.19
2022-12-26T22:45:55.578Z,101500.69
2022-12-26T22:48:23.245Z,101502.09
2022-12-26T22:50:51.900Z,101494.19
2022-12-26T22:53:19.437Z,101497.00
2022-12-26T22:55:47.785Z,101498.59
2022-12-26T22:58:15.532Z,101483.84
2022-12-26T23:00:43.281Z,101492.13
2022-12-26T23:03:10.769Z,101493.16
